Terminal Aerodrome Forecast
Issued by NWS

Home | Current Version | Previous Version | Text Only | Print | Product List | Glossary On
Versions: 1 2 3 4 5 6 7 8 9 10 11 12 13 14 15 16 17 18 19 20 21 22 23 24 25 26 27 28 29 30 31 32 33 34 35 36
599
FTUS43 KDTX 201121
TAFDTW
TAF

TAF
KPTK 201121Z 2012/2112 14004KT 1SM BR BKN004
      TEMPO 2012/2014 1/2SM FG VV002
     FM201400 16005KT 4SM BR BKN008
     FM201600 16006KT P6SM BKN018
     FM201800 17006KT P6SM BKN024
     FM202100 16005KT P6SM SCT028
     FM210800 VRB03KT 2SM BR BKN005=

USA.gov is the U.S. government's official web portal to all federal, state and local government web resources and services.